createdAt,value
2022-10-28T00:03:01.755Z,97741.00
2022-10-28T00:08:02.584Z,97751.00
2022-10-28T00:13:03.411Z,97747.00
2022-10-28T00:18:04.186Z,97739.00
2022-10-28T00:23:04.917Z,97746.00
2022-10-28T00:28:05.653Z,97739.00
2022-10-28T00:33:06.392Z,97735.00
2022-10-28T00:38:07.139Z,97732.00
2022-10-28T00:43:10.965Z,97733.00
2022-10-28T00:48:11.900Z,97735.00
2022-10-28T00:53:18.184Z,97734.00
2022-10-28T00:58:22.215Z,97742.00
2022-10-28T01:03:22.977Z,97744.00
2022-10-28T01:08:23.995Z,97739.00
2022-10-28T01:14:17.909Z,97744.00
2022-10-28T01:21:08.530Z,97720.00
2022-10-28T01:26:41.427Z,97720.00
2022-10-28T01:31:56.630Z,97711.00
2022-10-28T01:37:08.635Z,97699.00
2022-10-28T01:43:05.605Z,97697.00
2022-10-28T01:48:16.297Z,97706.00
2022-10-28T01:53:22.148Z,97700.00
2022-10-28T01:58:27.617Z,97686.00
2022-10-28T02:03:28.345Z,97687.00
2022-10-28T02:11:18.457Z,97681.00
2022-10-28T02:16:35.508Z,97686.00
2022-10-28T02:21:52.022Z,97674.00
2022-10-28T02:27:07.130Z,97665.00
2022-10-28T02:32:14.479Z,97648.00
2022-10-28T02:37:22.022Z,97663.00
2022-10-28T02:42:34.778Z,97671.00
2022-10-28T02:47:38.815Z,97657.00
2022-10-28T02:52:44.649Z,97658.00
2022-10-28T02:57:49.033Z,97656.00
2022-10-28T03:02:50.216Z,97663.00
2022-10-28T03:07:51.232Z,97665.00
2022-10-28T03:12:52.245Z,97665.00
2022-10-28T03:17:53.411Z,97678.00
2022-10-28T03:22:54.698Z,97670.00
2022-10-28T03:27:55.809Z,97666.00
2022-10-28T03:32:56.888Z,97668.00
2022-10-28T03:37:57.722Z,97661.00
2022-10-28T03:42:58.433Z,97652.00
2022-10-28T03:47:59.222Z,97652.00
2022-10-28T03:53:00.053Z,97645.00
2022-10-28T03:58:01.655Z,97649.00
2022-10-28T04:03:02.384Z,97649.00
2022-10-28T04:08:03.773Z,97651.00
2022-10-28T04:13:05.518Z,97658.00
2022-10-28T04:18:06.583Z,97646.00
2022-10-28T04:23:10.219Z,97647.00
2022-10-28T04:28:11.136Z,97651.00
2022-10-28T04:33:12.140Z,97651.00
2022-10-28T04:38:13.566Z,97637.00
2022-10-28T04:43:15.259Z,97631.00
2022-10-28T04:48:15.975Z,97623.00
2022-10-28T04:53:16.792Z,97624.00
2022-10-28T04:58:17.554Z,97616.00
2022-10-28T05:03:18.330Z,97612.00
2022-10-28T05:08:19.036Z,97624.00
2022-10-28T05:13:19.984Z,97628.00
2022-10-28T05:18:20.702Z,97619.00
2022-10-28T05:23:24.774Z,97618.00
2022-10-28T05:28:29.403Z,97617.00
2022-10-28T05:33:30.169Z,97607.00
2022-10-28T05:38:30.909Z,97596.00
2022-10-28T05:43:31.620Z,97591.00
2022-10-28T05:48:32.383Z,97600.00
2022-10-28T05:53:33.300Z,97597.00
2022-10-28T05:58:34.173Z,97588.00
2022-10-28T06:03:35.256Z,97586.00
2022-10-28T06:08:36.116Z,97580.00
2022-10-28T06:13:35.365Z,97604.00
2022-10-28T06:18:36.122Z,97609.00
2022-10-28T06:23:37.204Z,97618.00
2022-10-28T06:28:37.917Z,97615.00
2022-10-28T06:33:38.714Z,97624.00
2022-10-28T06:38:39.579Z,97637.00
2022-10-28T06:43:40.469Z,97636.00
2022-10-28T06:48:42.692Z,97642.00
2022-10-28T06:53:47.458Z,97641.00
2022-10-28T06:58:53.051Z,97646.00
2022-10-28T07:03:53.809Z,97643.00
2022-10-28T07:08:54.569Z,97636.00
2022-10-28T07:13:55.305Z,97639.00
2022-10-28T07:18:56.148Z,97643.00
2022-10-28T07:23:57.278Z,97647.00
2022-10-28T07:28:58.017Z,97656.00
2022-10-28T07:33:58.817Z,97658.00
2022-10-28T07:38:59.579Z,97646.00
2022-10-28T07:44:00.321Z,97654.00
2022-10-28T07:49:01.217Z,97660.00
2022-10-28T07:54:02.041Z,97658.00
2022-10-28T07:59:02.806Z,97662.00
2022-10-28T08:04:03.614Z,97654.00
2022-10-28T08:09:04.407Z,97665.00
2022-10-28T08:14:05.145Z,97663.00
2022-10-28T08:19:07.852Z,97667.00
2022-10-28T08:24:09.393Z,97673.00
2022-10-28T08:29:11.403Z,97675.00
2022-10-28T08:34:12.219Z,97673.00
2022-10-28T08:39:13.133Z,97674.00
2022-10-28T08:44:41.281Z,97673.00
2022-10-28T08:49:48.520Z,97676.00
2022-10-28T08:55:00.908Z,97680.00
2022-10-28T09:00:05.043Z,97684.00
2022-10-28T09:05:25.967Z,97682.00
2022-10-28T09:11:35.559Z,97671.00
2022-10-28T09:16:46.329Z,97668.00
2022-10-28T09:21:52.385Z,97673.00
2022-10-28T09:29:11.261Z,97682.00
2022-10-28T09:35:56.898Z,97685.00
2022-10-28T09:41:11.254Z,97690.00
2022-10-28T09:46:15.266Z,97692.00
2022-10-28T09:52:15.213Z,97685.00
2022-10-28T09:57:17.823Z,97687.00
2022-10-28T10:02:31.103Z,97694.00
2022-10-28T10:07:38.544Z,97695.00
2022-10-28T10:12:40.068Z,97699.00
2022-10-28T10:17:44.468Z,97687.00
2022-10-28T10:22:47.476Z,97678.00
2022-10-28T10:28:21.695Z,97679.00
2022-10-28T10:33:30.543Z,97672.00
2022-10-28T10:38:32.066Z,97679.00
2022-10-28T10:43:34.781Z,97671.00
2022-10-28T10:48:36.559Z,97672.00
2022-10-28T10:53:39.151Z,97672.00
2022-10-28T10:58:48.708Z,97668.00
2022-10-28T11:09:34.346Z,97657.00
2022-10-28T11:14:35.141Z,97654.00
2022-10-28T11:19:37.502Z,97653.00
2022-10-28T11:26:34.549Z,97651.00
2022-10-28T11:34:45.827Z,97654.00
2022-10-28T11:40:56.654Z,97627.00
2022-10-28T11:46:15.337Z,97636.00
2022-10-28T11:51:30.463Z,97631.00
2022-10-28T11:56:49.236Z,97625.00
2022-10-28T12:02:37.738Z,97614.00
2022-10-28T12:08:06.678Z,97604.00
2022-10-28T12:13:36.089Z,97611.00
2022-10-28T12:20:04.495Z,97599.00
2022-10-28T12:25:12.468Z,97600.00
2022-10-28T12:30:35.486Z,97598.00
2022-10-28T12:35:45.892Z,97600.00
2022-10-28T12:41:03.572Z,97615.00
2022-10-28T12:46:08.952Z,97610.00
2022-10-28T12:51:15.769Z,97596.00
2022-10-28T12:56:32.668Z,97589.00
2022-10-28T13:01:34.291Z,97588.00
2022-10-28T13:09:01.752Z,97594.00
2022-10-28T13:14:50.352Z,97584.00
2022-10-28T13:22:25.271Z,97599.00
2022-10-28T13:27:26.987Z,97586.00
2022-10-28T13:32:38.403Z,97588.00
2022-10-28T13:37:44.733Z,97577.00
2022-10-28T13:42:48.123Z,97575.00
2022-10-28T13:47:48.894Z,97586.00
2022-10-28T13:53:37.860Z,97587.00
2022-10-28T13:58:52.762Z,97586.00
2022-10-28T14:03:53.530Z,97582.00
2022-10-28T14:08:55.554Z,97584.00
2022-10-28T14:14:00.728Z,97597.00
2022-10-28T14:19:22.972Z,97601.00
2022-10-28T14:24:41.526Z,97602.00
2022-10-28T14:29:48.465Z,97595.00
2022-10-28T14:34:49.471Z,97599.00
2022-10-28T14:40:19.206Z,97599.00
2022-10-28T14:45:32.042Z,97593.00
2022-10-28T14:50:55.117Z,97604.00
2022-10-28T14:56:00.275Z,97609.00
2022-10-28T15:01:45.588Z,97618.00
2022-10-28T15:06:50.398Z,97609.00
2022-10-28T15:12:05.388Z,97616.00
2022-10-28T15:17:19.569Z,97617.00
2022-10-28T15:22:25.325Z,97606.00
2022-10-28T15:27:31.805Z,97602.00
2022-10-28T15:32:34.721Z,97600.00
2022-10-28T15:37:35.821Z,97606.00
2022-10-28T15:42:44.491Z,97620.00
2022-10-28T15:47:46.911Z,97615.00
2022-10-28T15:52:49.496Z,97609.00
2022-10-28T15:57:56.573Z,97624.00
2022-10-28T16:03:07.682Z,97618.00
2022-10-28T16:08:22.479Z,97617.00
2022-10-28T16:16:14.766Z,97620.00
2022-10-28T16:21:19.578Z,97613.00
2022-10-28T16:26:20.298Z,97620.00
2022-10-28T16:31:24.279Z,97619.00
2022-10-28T16:36:27.932Z,97624.00
2022-10-28T16:41:28.643Z,97635.00
2022-10-28T16:46:29.837Z,97633.00
2022-10-28T16:51:30.548Z,97642.00
2022-10-28T16:56:31.325Z,97647.00
2022-10-28T17:01:32.164Z,97654.00
2022-10-28T17:06:33.024Z,97656.00
2022-10-28T17:11:33.865Z,97663.00
2022-10-28T17:16:38.044Z,97670.00
2022-10-28T17:21:42.192Z,97670.00
2022-10-28T17:26:45.284Z,97674.00
2022-10-28T17:31:46.004Z,97671.00
2022-10-28T17:36:46.791Z,97676.00
2022-10-28T17:41:47.742Z,97680.00
2022-10-28T17:46:49.488Z,97683.00
2022-10-28T17:51:50.909Z,97689.00
2022-10-28T17:56:51.652Z,97681.00
2022-10-28T18:01:53.628Z,97698.00
2022-10-28T18:06:56.600Z,97687.00
2022-10-28T18:11:57.819Z,97689.00
2022-10-28T18:16:58.932Z,97694.00
2022-10-28T18:21:59.647Z,97692.00
2022-10-28T18:31:56.058Z,97683.00
2022-10-28T18:36:56.861Z,97680.00
2022-10-28T18:41:57.593Z,97686.00
2022-10-28T18:46:58.328Z,97691.00
2022-10-28T18:51:59.274Z,97689.00
2022-10-28T18:56:59.958Z,97697.00
2022-10-28T19:02:00.918Z,97705.00
2022-10-28T19:07:02.802Z,97714.00
2022-10-28T19:12:05.202Z,97715.00
2022-10-28T19:17:06.039Z,97721.00
2022-10-28T19:22:07.622Z,97715.00
2022-10-28T19:27:08.763Z,97722.00
2022-10-28T19:32:09.509Z,97722.00
2022-10-28T19:37:10.231Z,97721.00
2022-10-28T19:42:11.022Z,97721.00
2022-10-28T19:47:12.381Z,97714.00
2022-10-28T19:52:13.130Z,97723.00
2022-10-28T20:02:14.857Z,97721.00
2022-10-28T20:07:15.760Z,97726.00
2022-10-28T20:12:16.893Z,97733.00
2022-10-28T20:17:17.731Z,97725.00
2022-10-28T20:22:18.531Z,97724.00
2022-10-28T20:27:19.253Z,97737.00
2022-10-28T20:32:21.603Z,97741.00
2022-10-28T20:37:22.325Z,97742.00
2022-10-28T20:42:23.073Z,97750.00
2022-10-28T20:57:25.617Z,97752.00
2022-10-28T21:02:26.550Z,97757.00
2022-10-28T21:07:27.408Z,97759.00
2022-10-28T21:12:28.150Z,97756.00
2022-10-28T21:17:28.936Z,97764.00
2022-10-28T21:22:29.692Z,97764.00
2022-10-28T21:27:30.413Z,97765.00
2022-10-28T21:32:31.504Z,97773.00
2022-10-28T21:37:33.192Z,97769.00
2022-10-28T21:42:33.914Z,97778.00
2022-10-28T21:47:34.726Z,97772.00
2022-10-28T21:52:35.439Z,97771.00
2022-10-28T21:57:36.349Z,97765.00
2022-10-28T22:02:37.258Z,97759.00
2022-10-28T22:07:38.241Z,97759.00
2022-10-28T22:12:38.954Z,97759.00
2022-10-28T22:17:39.784Z,97757.00
2022-10-28T22:22:40.556Z,97772.00
2022-10-28T22:27:41.315Z,97762.00
2022-10-28T22:32:42.025Z,97764.00
2022-10-28T22:37:42.765Z,97750.00
2022-10-28T22:42:43.495Z,97744.00
2022-10-28T22:47:44.329Z,97745.00
2022-10-28T22:52:45.036Z,97749.00
2022-10-28T22:57:46.076Z,97744.00
2022-10-28T23:02:46.908Z,97739.00
2022-10-28T23:07:48.073Z,97744.00
2022-10-28T23:12:55.269Z,97747.00
2022-10-28T23:17:56.788Z,97751.00
2022-10-28T23:22:57.804Z,97749.00
2022-10-28T23:27:59.018Z,97742.00
2022-10-28T23:33:00.010Z,97733.00
2022-10-28T23:38:02.110Z,97738.00
2022-10-28T23:43:03.220Z,97743.00
2022-10-28T23:48:04.358Z,97748.00
2022-10-28T23:53:05.068Z,97745.00
2022-10-28T23:58:06.408Z,97744.00
